createdAt,value
2018-02-22T00:02:04.709Z,75.39
2018-02-22T00:04:33.110Z,75.82
2018-02-22T00:07:01.768Z,76.23
2018-02-22T00:09:30.155Z,76.52
2018-02-22T00:11:58.551Z,76.93
2018-02-22T00:14:26.955Z,77.23
2018-02-22T00:16:55.354Z,77.07
2018-02-22T00:19:24.639Z,77.62
2018-02-22T00:21:53.048Z,77.30
2018-02-22T00:24:22.341Z,77.11
2018-02-22T00:26:52.175Z,77.46
2018-02-22T00:29:20.596Z,77.42
2018-02-22T00:31:49.008Z,77.26
2018-02-22T00:34:17.416Z,77.03
2018-02-22T00:36:45.828Z,77.62
2018-02-22T00:39:14.218Z,77.80
2018-02-22T00:41:42.631Z,77.30
2018-02-22T00:44:11.017Z,77.09
2018-02-22T00:46:40.225Z,77.10
2018-02-22T00:49:09.383Z,76.90
2018-02-22T00:51:37.770Z,76.61
2018-02-22T00:54:06.263Z,76.51
2018-02-22T00:56:34.668Z,76.81
2018-02-22T00:59:03.879Z,76.40
2018-02-22T01:01:32.302Z,76.21
2018-02-22T01:04:00.697Z,75.81
2018-02-22T01:06:29.562Z,75.89
2018-02-22T01:08:57.961Z,75.57
2018-02-22T01:11:26.363Z,75.72
2018-02-22T01:13:55.543Z,75.55
2018-02-22T01:16:23.988Z,75.28
2018-02-22T01:18:52.363Z,75.33
2018-02-22T01:21:20.758Z,74.60
2018-02-22T01:23:49.151Z,75.39
2018-02-22T01:26:17.722Z,75.42
2018-02-22T01:28:46.116Z,75.74
2018-02-22T01:31:14.654Z,75.73
2018-02-22T01:33:43.069Z,76.07
2018-02-22T01:36:11.467Z,75.67
2018-02-22T01:38:39.908Z,76.21
2018-02-22T01:41:08.371Z,76.50
2018-02-22T01:43:37.542Z,76.41
2018-02-22T01:46:05.933Z,76.47
2018-02-22T01:48:35.093Z,76.36
2018-02-22T01:51:03.521Z,76.75
2018-02-22T01:53:32.891Z,76.73
2018-02-22T01:56:01.402Z,77.22
2018-02-22T01:58:30.560Z,77.51
2018-02-22T02:00:58.958Z,77.93
2018-02-22T02:03:27.367Z,77.57
2018-02-22T02:05:55.774Z,78.12
2018-02-22T02:08:24.461Z,78.11
2018-02-22T02:10:52.851Z,78.44
2018-02-22T02:13:21.276Z,78.59
2018-02-22T02:15:50.608Z,78.74
2018-02-22T02:18:19.013Z,78.61
2018-02-22T02:20:47.486Z,78.60
2018-02-22T02:23:15.873Z,77.72
2018-02-22T02:25:44.270Z,77.59
2018-02-22T02:28:12.656Z,77.19
2018-02-22T02:30:41.042Z,77.17
2018-02-22T02:33:09.440Z,77.15
2018-02-22T02:35:38.632Z,77.31
2018-02-22T02:38:07.039Z,77.62
2018-02-22T02:40:36.404Z,77.56
2018-02-22T02:43:05.565Z,77.58
2018-02-22T02:45:34.000Z,77.08
2018-02-22T02:48:03.181Z,77.25
2018-02-22T02:50:31.748Z,77.71
2018-02-22T02:53:00.564Z,77.18
2018-02-22T02:55:28.948Z,76.98
2018-02-22T02:57:57.334Z,76.76
2018-02-22T03:00:26.508Z,76.53
2018-02-22T03:05:23.436Z,75.74
2018-02-22T03:07:52.101Z,75.92
2018-02-22T03:10:20.508Z,76.14
2018-02-22T03:12:48.895Z,75.71
2018-02-22T03:15:17.288Z,75.33
2018-02-22T03:17:45.743Z,74.77
2018-02-22T03:20:14.223Z,74.71
2018-02-22T03:22:42.635Z,75.45
2018-02-22T03:25:11.018Z,75.31
2018-02-22T03:27:39.475Z,74.77
2018-02-22T03:30:07.912Z,75.01
2018-02-22T03:32:36.369Z,75.27
2018-02-22T03:35:04.758Z,75.66
2018-02-22T03:37:33.153Z,74.91
2018-02-22T03:40:02.379Z,74.63
2018-02-22T03:42:30.765Z,74.89
2018-02-22T03:44:59.178Z,75.30
2018-02-22T03:47:27.578Z,75.30
2018-02-22T03:49:56.171Z,75.39
2018-02-22T03:52:24.563Z,76.00
2018-02-22T03:54:53.743Z,75.56
2018-02-22T03:57:22.128Z,75.19
2018-02-22T03:59:51.397Z,75.46
2018-02-22T04:02:19.784Z,75.15
2018-02-22T04:04:48.207Z,75.52
2018-02-22T04:07:18.195Z,75.18
2018-02-22T04:09:47.395Z,75.21
2018-02-22T04:12:15.950Z,75.21
2018-02-22T04:14:44.380Z,75.05
2018-02-22T04:17:13.552Z,75.02
2018-02-22T04:19:41.966Z,75.23
2018-02-22T04:22:11.102Z,75.70
2018-02-22T04:24:39.504Z,74.65
2018-02-22T04:27:07.920Z,74.70
2018-02-22T04:29:37.067Z,74.52
2018-02-22T04:32:05.525Z,74.89
2018-02-22T04:34:33.923Z,74.73
2018-02-22T04:37:02.389Z,74.92
2018-02-22T04:39:30.834Z,75.29
2018-02-22T04:41:59.344Z,75.27
2018-02-22T04:44:27.747Z,75.16
2018-02-22T04:46:56.141Z,75.74
2018-02-22T04:49:24.640Z,75.15
2018-02-22T04:51:53.076Z,75.29
2018-02-22T04:54:21.519Z,76.01
2018-02-22T04:56:50.704Z,75.69
2018-02-22T04:59:19.129Z,75.70
2018-02-22T05:01:47.553Z,75.23
2018-02-22T05:04:16.131Z,75.27
2018-02-22T05:06:44.530Z,75.21
2018-02-22T05:09:13.689Z,75.62
2018-02-22T05:11:42.259Z,75.50
2018-02-22T05:14:10.648Z,76.03
2018-02-22T05:16:39.045Z,76.00
2018-02-22T05:19:07.443Z,76.04
2018-02-22T05:21:35.879Z,76.70
2018-02-22T05:24:04.266Z,76.50
2018-02-22T05:26:32.672Z,76.18
2018-02-22T05:29:01.052Z,76.57
2018-02-22T05:31:29.447Z,77.23
2018-02-22T05:33:57.922Z,76.79
2018-02-22T05:36:26.327Z,76.95
2018-02-22T05:38:55.510Z,76.81
2018-02-22T05:41:23.891Z,77.35
2018-02-22T05:43:52.270Z,77.10
2018-02-22T05:46:20.646Z,76.72
2018-02-22T05:48:49.821Z,76.81
2018-02-22T05:51:18.276Z,76.42
2018-02-22T05:53:46.659Z,76.01
2018-02-22T05:56:15.076Z,76.44
2018-02-22T05:58:44.353Z,76.83
2018-02-22T06:01:12.781Z,76.09
2018-02-22T06:03:42.017Z,76.67
2018-02-22T06:06:10.449Z,76.88
2018-02-22T06:08:38.837Z,77.45
2018-02-22T06:11:08.027Z,77.12
2018-02-22T06:13:36.852Z,76.87
2018-02-22T06:16:05.395Z,76.27
2018-02-22T06:18:33.783Z,76.68
2018-02-22T06:21:02.952Z,76.69
2018-02-22T06:23:32.019Z,76.92
2018-02-22T06:26:00.456Z,76.46
2018-02-22T06:28:28.861Z,75.98
2018-02-22T06:30:58.039Z,76.04
2018-02-22T06:33:26.455Z,76.62
2018-02-22T06:35:54.923Z,76.74
2018-02-22T06:38:23.520Z,76.37
2018-02-22T06:40:51.948Z,76.22
2018-02-22T06:43:20.395Z,76.43
2018-02-22T06:45:48.846Z,76.61
2018-02-22T06:48:18.042Z,77.29
2018-02-22T06:50:47.231Z,76.56
2018-02-22T06:53:16.433Z,75.98
2018-02-22T06:55:45.637Z,75.86
2018-02-22T06:58:15.031Z,75.60
2018-02-22T07:00:44.331Z,75.22
2018-02-22T07:03:12.715Z,75.02
2018-02-22T07:05:41.879Z,74.80
2018-02-22T07:08:10.295Z,74.92
2018-02-22T07:10:39.468Z,74.70
2018-02-22T07:13:08.034Z,74.71
2018-02-22T07:15:36.475Z,74.69
2018-02-22T07:18:04.936Z,75.29
2018-02-22T07:20:33.375Z,75.42
2018-02-22T07:23:02.070Z,75.32
2018-02-22T07:25:30.603Z,74.87
2018-02-22T07:27:58.987Z,74.43
2018-02-22T07:30:28.106Z,73.42
2018-02-22T07:32:56.490Z,71.81
2018-02-22T07:35:24.892Z,71.44
2018-02-22T07:37:53.312Z,71.42
2018-02-22T07:40:22.467Z,71.35
2018-02-22T07:42:51.000Z,69.97
2018-02-22T07:45:20.770Z,69.58
2018-02-22T07:47:49.320Z,70.03
2018-02-22T07:50:17.731Z,69.86
2018-02-22T07:52:46.238Z,68.78
2018-02-22T07:55:15.570Z,68.35
2018-02-22T07:57:43.978Z,68.42
2018-02-22T08:00:12.447Z,67.71
2018-02-22T08:02:40.912Z,67.97
2018-02-22T08:05:09.478Z,67.84
2018-02-22T08:07:38.652Z,67.16
2018-02-22T08:10:07.080Z,66.72
2018-02-22T08:12:35.716Z,66.27
2018-02-22T08:15:04.118Z,66.50
2018-02-22T08:17:33.293Z,65.61
2018-02-22T08:20:01.676Z,64.85
2018-02-22T08:22:30.096Z,65.25
2018-02-22T08:24:58.472Z,64.48
2018-02-22T08:27:26.860Z,64.86
2018-02-22T08:29:55.284Z,63.63
2018-02-22T08:32:23.667Z,63.18
2018-02-22T08:34:52.145Z,63.26
2018-02-22T08:37:20.604Z,63.37
2018-02-22T08:39:49.021Z,62.90
2018-02-22T08:42:17.451Z,61.62
2018-02-22T08:44:46.002Z,61.46
2018-02-22T08:47:14.430Z,61.76
2018-02-22T08:49:42.842Z,61.59
2018-02-22T08:52:11.255Z,61.29
2018-02-22T08:54:40.404Z,60.52
2018-02-22T08:57:08.854Z,60.39
2018-02-22T08:59:38.022Z,59.59
2018-02-22T09:02:06.429Z,59.41
2018-02-22T09:04:35.027Z,58.27
2018-02-22T09:07:03.513Z,57.73
2018-02-22T09:09:32.009Z,57.56
2018-02-22T09:12:01.107Z,55.76
2018-02-22T09:14:29.496Z,55.55
2018-02-22T09:16:57.919Z,54.44
2018-02-22T09:19:27.088Z,53.90
2018-02-22T09:21:55.744Z,51.76
2018-02-22T09:24:24.159Z,49.13
2018-02-22T09:26:52.543Z,47.00
2018-02-22T09:29:21.049Z,46.19
2018-02-22T09:31:50.295Z,43.45
2018-02-22T09:34:18.700Z,44.32
2018-02-22T09:36:47.100Z,43.11
2018-02-22T09:39:16.299Z,42.32
2018-02-22T09:41:45.475Z,43.02
2018-02-22T09:44:14.756Z,41.65
2018-02-22T09:46:43.175Z,42.14
2018-02-22T09:49:11.590Z,40.27
2018-02-22T09:51:39.991Z,42.18
2018-02-22T09:54:08.436Z,40.24
2018-02-22T09:56:37.596Z,40.23
2018-02-22T09:59:06.268Z,38.48
2018-02-22T10:01:34.681Z,40.40
2018-02-22T10:04:03.814Z,40.19
2018-02-22T10:06:32.204Z,39.82
2018-02-22T10:09:00.621Z,40.34
2018-02-22T10:11:29.040Z,39.47
2018-02-22T10:13:58.392Z,38.78
2018-02-22T10:16:26.812Z,37.17
2018-02-22T10:18:55.316Z,39.18
2018-02-22T10:21:24.497Z,38.65
2018-02-22T10:23:53.679Z,38.55
2018-02-22T10:26:22.080Z,39.02
2018-02-22T10:28:51.238Z,38.18
2018-02-22T10:31:19.642Z,39.18
2018-02-22T10:33:48.028Z,39.24
2018-02-22T10:36:17.252Z,39.14
2018-02-22T10:38:45.684Z,39.25
2018-02-22T10:41:14.087Z,39.66
2018-02-22T10:43:42.671Z,38.17
2018-02-22T10:46:11.079Z,39.16
2018-02-22T10:48:39.512Z,38.52
2018-02-22T10:51:08.100Z,38.19
2018-02-22T10:53:36.565Z,38.07
2018-02-22T10:56:05.009Z,38.05
2018-02-22T10:58:33.385Z,37.62
2018-02-22T11:01:07.289Z,37.65
2018-02-22T11:03:36.491Z,39.02
2018-02-22T11:06:04.886Z,39.63
2018-02-22T11:08:33.292Z,39.99
2018-02-22T11:11:01.819Z,39.72
2018-02-22T11:13:30.214Z,39.22
2018-02-22T11:15:59.351Z,39.90
2018-02-22T11:18:28.686Z,41.58
2018-02-22T11:23:33.354Z,41.96
2018-02-22T11:26:01.804Z,41.45
2018-02-22T11:28:30.222Z,40.89
2018-02-22T11:30:58.847Z,39.13
2018-02-22T11:33:27.981Z,38.90
2018-02-22T11:35:56.375Z,38.64
2018-02-22T11:38:24.789Z,37.11
2018-02-22T11:40:54.012Z,37.17
2018-02-22T11:43:23.181Z,37.21
2018-02-22T11:45:51.623Z,37.79
2018-02-22T11:48:20.296Z,40.11
2018-02-22T11:50:48.724Z,36.91
2018-02-22T11:53:17.106Z,37.18
2018-02-22T11:55:45.498Z,37.71
2018-02-22T11:58:13.910Z,37.82
2018-02-22T12:00:43.061Z,36.41
2018-02-22T12:03:11.471Z,35.88
2018-02-22T12:05:40.755Z,37.07
2018-02-22T12:08:09.165Z,37.00
2018-02-22T12:10:38.411Z,38.43
2018-02-22T12:13:06.808Z,37.34
2018-02-22T12:15:35.995Z,38.05
2018-02-22T12:18:04.391Z,36.65
2018-02-22T12:20:32.798Z,37.09
2018-02-22T12:23:01.220Z,37.00
2018-02-22T12:25:29.723Z,38.20
2018-02-22T12:27:58.144Z,37.78
2018-02-22T12:30:26.550Z,37.03
2018-02-22T12:32:54.960Z,37.38
2018-02-22T12:35:23.384Z,37.68
2018-02-22T12:37:51.799Z,36.85
2018-02-22T12:40:20.405Z,36.75
2018-02-22T12:42:48.872Z,37.55
2018-02-22T12:45:17.271Z,36.79
2018-02-22T12:47:45.672Z,37.28
2018-02-22T12:50:14.098Z,36.71
2018-02-22T12:52:43.265Z,37.75
2018-02-22T12:55:13.246Z,38.12
2018-02-22T12:57:41.685Z,37.57
2018-02-22T13:00:12.067Z,37.96
2018-02-22T13:02:40.757Z,37.02
2018-02-22T13:05:09.414Z,38.07
2018-02-22T13:07:37.824Z,37.23
2018-02-22T13:10:06.353Z,36.97
2018-02-22T13:12:35.577Z,37.51
2018-02-22T13:15:04.425Z,36.93
2018-02-22T13:17:32.954Z,37.24
2018-02-22T13:20:01.845Z,37.19
2018-02-22T13:22:31.681Z,37.63
2018-02-22T13:25:10.526Z,38.13
2018-02-22T13:27:39.425Z,37.05
2018-02-22T13:30:08.711Z,35.98
2018-02-22T13:32:54.998Z,35.59
2018-02-22T13:35:23.490Z,35.98
2018-02-22T13:40:54.937Z,36.76
2018-02-22T13:43:23.632Z,35.96
2018-02-22T13:45:52.208Z,36.83
2018-02-22T13:48:23.003Z,35.81
2018-02-22T13:51:05.428Z,36.66
2018-02-22T13:53:33.815Z,35.73
2018-02-22T13:56:03.638Z,35.95
2018-02-22T13:58:32.255Z,35.44
2018-02-22T14:01:18.603Z,36.01
2018-02-22T14:03:47.775Z,35.45
2018-02-22T14:06:16.359Z,35.28
2018-02-22T14:08:47.519Z,35.47
2018-02-22T14:11:15.988Z,34.91
2018-02-22T14:13:44.408Z,36.11
2018-02-22T14:16:12.830Z,35.54
2018-02-22T14:18:41.213Z,36.45
2018-02-22T14:21:09.717Z,35.67
2018-02-22T14:23:38.119Z,36.10
2018-02-22T14:26:06.569Z,36.70
2018-02-22T14:28:34.955Z,35.72
2018-02-22T14:31:03.374Z,36.23
2018-02-22T14:33:32.537Z,36.51
2018-02-22T14:36:00.975Z,35.96
2018-02-22T14:38:29.362Z,35.37
2018-02-22T14:40:57.867Z,36.75
2018-02-22T14:43:26.283Z,37.16
2018-02-22T14:45:54.681Z,37.98
2018-02-22T14:48:23.853Z,37.82
2018-02-22T14:50:52.284Z,38.48
2018-02-22T14:53:20.684Z,39.05
2018-02-22T14:55:49.171Z,38.90
2018-02-22T14:58:17.607Z,38.68
2018-02-22T15:00:52.477Z,39.92
2018-02-22T15:03:20.974Z,40.62
2018-02-22T15:05:49.374Z,40.86
2018-02-22T15:08:17.859Z,41.19
2018-02-22T15:10:46.414Z,41.04
2018-02-22T15:13:14.875Z,41.32
2018-02-22T15:15:43.404Z,41.01
2018-02-22T15:18:11.805Z,40.76
2018-02-22T15:20:40.244Z,41.82
2018-02-22T15:23:09.410Z,41.47
2018-02-22T15:25:49.324Z,41.53
2018-02-22T15:28:17.727Z,41.05
2018-02-22T15:30:46.317Z,42.38
2018-02-22T15:33:15.963Z,42.04
2018-02-22T15:35:44.805Z,42.31
2018-02-22T15:38:13.219Z,42.40
2018-02-22T15:40:42.385Z,42.12
2018-02-22T15:43:10.803Z,42.50
2018-02-22T15:45:40.057Z,42.45
2018-02-22T15:48:10.218Z,43.69
2018-02-22T15:50:38.624Z,43.49
2018-02-22T15:53:07.010Z,43.33
2018-02-22T15:55:35.403Z,42.75
2018-02-22T15:58:03.787Z,43.27
2018-02-22T16:00:32.227Z,42.73
2018-02-22T16:03:01.408Z,42.96
2018-02-22T16:05:29.803Z,44.01
2018-02-22T16:07:58.354Z,43.21
2018-02-22T16:10:26.889Z,43.87
2018-02-22T16:12:55.280Z,43.67
2018-02-22T16:15:23.704Z,44.31
2018-02-22T16:17:52.918Z,44.64
2018-02-22T16:20:21.324Z,44.55
2018-02-22T16:22:49.728Z,44.27
2018-02-22T16:25:18.169Z,44.67
2018-02-22T16:27:47.343Z,44.66
2018-02-22T16:30:15.895Z,44.89
2018-02-22T16:32:44.277Z,45.62
2018-02-22T16:35:12.656Z,45.99
2018-02-22T16:37:41.074Z,45.51
2018-02-22T16:40:09.476Z,45.21
2018-02-22T16:42:38.642Z,45.67
2018-02-22T16:45:07.686Z,45.58
2018-02-22T16:47:36.851Z,45.96
2018-02-22T16:50:05.307Z,45.82
2018-02-22T16:52:43.621Z,45.41
2018-02-22T16:55:12.052Z,45.73
2018-02-22T16:57:41.213Z,46.00
2018-02-22T17:00:10.620Z,45.76
2018-02-22T17:02:41.867Z,46.87
2018-02-22T17:05:10.516Z,47.05
2018-02-22T17:07:40.962Z,47.27
2018-02-22T17:10:09.456Z,47.36
2018-02-22T17:12:37.875Z,47.14
2018-02-22T17:15:07.023Z,48.11
2018-02-22T17:17:46.239Z,47.33
2018-02-22T17:20:15.369Z,47.16
2018-02-22T17:22:46.516Z,47.40
2018-02-22T17:25:15.640Z,47.60
2018-02-22T17:27:49.421Z,47.45
2018-02-22T17:30:25.827Z,47.34
2018-02-22T17:32:55.142Z,47.88
2018-02-22T17:38:27.028Z,48.98
2018-02-22T17:41:03.799Z,49.99
2018-02-22T17:43:33.118Z,49.83
2018-02-22T17:46:02.375Z,50.50
2018-02-22T17:48:31.752Z,50.48
2018-02-22T17:51:00.971Z,50.99
2018-02-22T17:53:29.558Z,51.34
2018-02-22T17:55:57.914Z,51.27
2018-02-22T17:58:26.396Z,51.07
2018-02-22T18:00:55.720Z,50.71
2018-02-22T18:03:24.626Z,50.37
2018-02-22T18:05:53.006Z,50.64
2018-02-22T18:08:22.240Z,51.41
2018-02-22T18:10:50.661Z,52.05
2018-02-22T18:13:19.072Z,52.98
2018-02-22T18:15:47.506Z,55.01
2018-02-22T18:18:15.914Z,56.05
2018-02-22T18:20:44.532Z,57.58
2018-02-22T18:23:13.722Z,57.69
2018-02-22T18:25:42.200Z,58.03
2018-02-22T18:28:10.753Z,58.31
2018-02-22T18:30:39.164Z,59.24
2018-02-22T18:33:07.597Z,59.84
2018-02-22T18:35:36.211Z,60.93
2018-02-22T18:38:04.873Z,61.48
2018-02-22T18:40:38.693Z,62.10
2018-02-22T18:43:12.708Z,62.42
2018-02-22T18:45:41.128Z,63.23
2018-02-22T18:48:09.562Z,63.28
2018-02-22T18:50:38.020Z,63.53
2018-02-22T18:53:06.528Z,63.98
2018-02-22T18:55:35.100Z,64.38
2018-02-22T18:58:03.515Z,64.40
2018-02-22T19:00:31.956Z,64.60
2018-02-22T19:03:00.416Z,64.46
2018-02-22T19:05:29.601Z,64.68
2018-02-22T19:07:58.019Z,64.55
2018-02-22T19:10:43.688Z,64.87
2018-02-22T19:13:12.143Z,64.91
2018-02-22T19:15:40.649Z,65.50
2018-02-22T19:18:09.105Z,66.08
2018-02-22T19:20:37.808Z,66.22
2018-02-22T19:23:15.648Z,66.15
2018-02-22T19:25:50.192Z,66.61
2018-02-22T19:28:19.560Z,66.50
2018-02-22T19:30:48.632Z,66.34
2018-02-22T19:33:17.232Z,66.26
2018-02-22T19:35:45.784Z,66.57
2018-02-22T19:38:14.480Z,66.59
2018-02-22T19:40:44.146Z,66.69
2018-02-22T19:43:12.821Z,66.99
2018-02-22T19:45:41.452Z,67.35
2018-02-22T19:48:09.920Z,67.74
2018-02-22T19:50:39.277Z,68.14
2018-02-22T19:53:18.765Z,68.45
2018-02-22T19:55:47.219Z,69.16
2018-02-22T19:58:15.928Z,69.16
2018-02-22T20:00:44.483Z,68.90
2018-02-22T20:03:13.200Z,69.36
2018-02-22T20:05:45.802Z,69.70
2018-02-22T20:08:15.409Z,70.15
2018-02-22T20:10:55.729Z,69.18
2018-02-22T20:13:24.339Z,69.55
2018-02-22T20:15:54.156Z,70.37
2018-02-22T20:18:22.951Z,69.45
2018-02-22T20:20:51.851Z,69.35
2018-02-22T20:23:20.354Z,70.07
2018-02-22T20:25:49.316Z,70.62
2018-02-22T20:28:18.568Z,70.89
2018-02-22T20:30:47.133Z,70.85
2018-02-22T20:33:19.333Z,70.83
2018-02-22T20:35:48.906Z,70.97
2018-02-22T20:38:17.476Z,70.98
2018-02-22T20:40:46.145Z,71.56
2018-02-22T20:43:15.593Z,71.41
2018-02-22T20:45:43.976Z,71.91
2018-02-22T20:48:14.205Z,72.02
2018-02-22T20:50:42.859Z,71.59
2018-02-22T20:56:07.839Z,72.02
2018-02-22T20:58:37.217Z,72.37
2018-02-22T21:01:05.742Z,72.94
2018-02-22T21:03:36.730Z,73.19
2018-02-22T21:06:05.139Z,73.67
2018-02-22T21:08:33.523Z,73.24
2018-02-22T21:11:01.949Z,72.58
2018-02-22T21:13:30.354Z,72.48
2018-02-22T21:15:58.793Z,72.89
2018-02-22T21:18:27.223Z,73.08
2018-02-22T21:20:55.677Z,72.49
2018-02-22T21:23:24.128Z,71.92
2018-02-22T21:25:53.273Z,72.04
2018-02-22T21:28:21.823Z,72.06
2018-02-22T21:30:50.224Z,72.36
2018-02-22T21:33:18.763Z,72.87
2018-02-22T21:35:48.142Z,73.11
2018-02-22T21:38:16.553Z,72.18
2018-02-22T21:40:45.042Z,72.28
2018-02-22T21:43:13.434Z,72.70
2018-02-22T21:45:41.836Z,73.36
2018-02-22T21:48:10.247Z,73.33
2018-02-22T21:50:39.441Z,73.28
2018-02-22T21:53:07.824Z,73.61
2018-02-22T21:55:37.430Z,73.73
2018-02-22T21:58:05.983Z,74.04
2018-02-22T22:00:34.394Z,74.28
2018-02-22T22:03:03.558Z,74.58
2018-02-22T22:05:31.948Z,74.44
2018-02-22T22:08:00.351Z,74.38
2018-02-22T22:10:29.524Z,74.71
2018-02-22T22:12:57.987Z,73.99
2018-02-22T22:15:27.183Z,73.89
2018-02-22T22:17:55.733Z,73.97
2018-02-22T22:20:24.132Z,74.19
2018-02-22T22:22:52.577Z,73.87
2018-02-22T22:25:20.984Z,73.73
2018-02-22T22:27:49.387Z,73.98
2018-02-22T22:30:17.775Z,73.77
2018-02-22T22:32:46.244Z,73.68
2018-02-22T22:35:14.650Z,73.40
2018-02-22T22:37:43.801Z,73.39
2018-02-22T22:40:12.376Z,73.54
2018-02-22T22:42:40.802Z,73.41
2018-02-22T22:45:09.216Z,73.77
2018-02-22T22:47:37.606Z,72.78
2018-02-22T22:50:06.015Z,72.74
2018-02-22T22:52:34.535Z,72.97
2018-02-22T22:55:02.984Z,73.03
2018-02-22T22:57:31.402Z,72.98
2018-02-22T23:00:00.801Z,73.18
2018-02-22T23:02:29.225Z,73.71
2018-02-22T23:04:57.862Z,74.33
2018-02-22T23:07:26.288Z,74.04
2018-02-22T23:09:54.783Z,74.61
2018-02-22T23:12:23.176Z,74.14
2018-02-22T23:14:51.608Z,74.72
2018-02-22T23:17:20.767Z,74.45
2018-02-22T23:19:49.162Z,74.56
2018-02-22T23:22:17.560Z,74.39
2018-02-22T23:24:46.808Z,74.79
2018-02-22T23:27:15.276Z,75.01
2018-02-22T23:29:43.731Z,75.09
2018-02-22T23:32:13.151Z,74.82
2018-02-22T23:34:41.566Z,74.33
2018-02-22T23:37:10.011Z,74.38
2018-02-22T23:39:39.188Z,74.46
2018-02-22T23:45:09.796Z,75.56
2018-02-22T23:47:39.059Z,75.21
2018-02-22T23:50:07.480Z,75.29
2018-02-22T23:52:35.943Z,76.03
2018-02-22T23:55:04.331Z,76.30
2018-02-22T23:57:32.754Z,75.81
